createdAt,value
2018-04-07T00:00:14.910Z,0
2018-04-07T00:01:14.817Z,0
2018-04-07T00:02:14.703Z,0
2018-04-07T00:03:14.495Z,0
2018-04-07T00:04:14.390Z,0
2018-04-07T00:05:15.350Z,0
2018-04-07T00:06:15.221Z,0
2018-04-07T00:07:15.374Z,0
2018-04-07T00:08:15.655Z,0
2018-04-07T00:09:14.932Z,0
2018-04-07T00:10:15.090Z,0
2018-04-07T00:11:57.322Z,0
2018-04-07T00:12:57.695Z,0
2018-04-07T00:13:57.666Z,0
2018-04-07T00:14:57.364Z,0
2018-04-07T00:15:57.994Z,0
2018-04-07T00:16:57.944Z,0
2018-04-07T00:17:58.122Z,0
2018-04-07T00:18:57.757Z,0
2018-04-07T00:19:58.001Z,0
2018-04-07T00:20:57.616Z,0
2018-04-07T00:21:57.522Z,0
2018-04-07T00:22:57.689Z,0
2018-04-07T00:23:57.376Z,0
2018-04-07T00:24:57.198Z,0
2018-04-07T00:25:58.143Z,0
2018-04-07T00:26:57.722Z,0
2018-04-07T00:27:57.597Z,0
2018-04-07T00:28:57.543Z,0
2018-04-07T00:29:57.217Z,0
2018-04-07T00:30:58.087Z,0
2018-04-07T00:31:58.080Z,0
2018-04-07T00:32:57.444Z,0
2018-04-07T00:33:57.331Z,0
2018-04-07T00:34:57.940Z,0
2018-04-07T00:35:57.657Z,0
2018-04-07T00:36:57.327Z,0
2018-04-07T00:37:57.795Z,0
2018-04-07T00:38:57.501Z,0
2018-04-07T00:39:57.542Z,0
2018-04-07T00:40:57.412Z,0
2018-04-07T00:41:57.426Z,0
2018-04-07T00:43:19.010Z,0
2018-04-07T00:44:18.828Z,0
2018-04-07T00:45:19.485Z,0
2018-04-07T00:46:19.286Z,0
2018-04-07T00:47:19.286Z,0
2018-04-07T00:48:39.099Z,0
2018-04-07T00:49:39.866Z,0
2018-04-07T00:50:39.380Z,0
2018-04-07T00:51:40.111Z,0
2018-04-07T00:52:39.963Z,0
2018-04-07T00:53:39.921Z,0
2018-04-07T00:54:39.700Z,0
2018-04-07T00:55:39.678Z,0
2018-04-07T00:56:39.629Z,0
2018-04-07T00:57:39.672Z,0
2018-04-07T00:59:00.426Z,0
2018-04-07T01:00:22.205Z,0
2018-04-07T01:01:23.100Z,0
2018-04-07T01:03:05.277Z,0
2018-04-07T01:04:05.909Z,0
2018-04-07T01:05:05.538Z,0
2018-04-07T01:06:06.010Z,0
2018-04-07T01:07:27.490Z,0
2018-04-07T01:08:28.083Z,0
2018-04-07T01:09:27.770Z,0
2018-04-07T01:10:48.272Z,0
2018-04-07T01:11:48.818Z,0
2018-04-07T01:13:30.371Z,0
2018-04-07T01:14:31.136Z,0
2018-04-07T01:15:30.646Z,0
2018-04-07T01:16:30.346Z,0
2018-04-07T01:17:30.861Z,0
2018-04-07T01:18:32.335Z,0
2018-04-07T01:19:34.468Z,0
2018-04-07T01:20:30.597Z,0
2018-04-07T01:21:35.242Z,0
2018-04-07T01:23:00.445Z,0
2018-04-07T01:24:00.336Z,0
2018-04-07T01:24:59.160Z,0
2018-04-07T01:26:02.168Z,0
2018-04-07T01:27:04.117Z,0
2018-04-07T01:28:23.501Z,0
2018-04-07T01:29:24.952Z,0
2018-04-07T01:30:23.580Z,0
2018-04-07T01:31:23.648Z,0
2018-04-07T01:32:24.900Z,0
2018-04-07T01:33:27.971Z,0
2018-04-07T01:34:26.814Z,0
2018-04-07T01:35:24.396Z,0
2018-04-07T01:36:24.892Z,0
2018-04-07T01:37:25.748Z,0
2018-04-07T01:38:24.710Z,0
2018-04-07T01:39:25.021Z,0
2018-04-07T01:40:26.970Z,0
2018-04-07T01:41:25.859Z,0
2018-04-07T01:42:52.711Z,0
2018-04-07T01:43:55.828Z,0
2018-04-07T01:44:58.190Z,0
2018-04-07T01:45:52.872Z,0
2018-04-07T01:46:53.597Z,0
2018-04-07T01:47:53.408Z,0
2018-04-07T01:48:53.476Z,0
2018-04-07T01:49:55.250Z,0
2018-04-07T01:50:53.111Z,0
2018-04-07T01:52:17.383Z,0
2018-04-07T01:53:15.395Z,0
2018-04-07T01:54:15.148Z,0
2018-04-07T01:55:14.702Z,0
2018-04-07T01:56:15.634Z,0
2018-04-07T01:57:15.624Z,0
2018-04-07T01:58:15.599Z,0
2018-04-07T01:59:15.271Z,0
2018-04-07T02:00:17.564Z,0
2018-04-07T02:01:45.405Z,0
2018-04-07T02:02:38.457Z,0
2018-04-07T02:03:38.070Z,0
2018-04-07T02:04:44.094Z,0
2018-04-07T02:05:40.314Z,0
2018-04-07T02:06:38.131Z,0
2018-04-07T02:07:40.121Z,0
2018-04-07T02:08:39.161Z,0
2018-04-07T02:09:41.570Z,0
2018-04-07T02:10:41.705Z,0
2018-04-07T02:11:41.217Z,0
2018-04-07T02:12:38.227Z,0
2018-04-07T02:14:00.780Z,0
2018-04-07T02:15:22.035Z,0
2018-04-07T02:16:23.104Z,0
2018-04-07T02:17:22.654Z,0
2018-04-07T02:18:22.452Z,0
2018-04-07T02:19:22.096Z,0
2018-04-07T02:20:22.651Z,0
2018-04-07T02:21:22.531Z,0
2018-04-07T02:22:22.125Z,0
2018-04-07T02:23:23.238Z,0
2018-04-07T02:24:22.835Z,0
2018-04-07T02:25:22.788Z,0
2018-04-07T02:26:22.271Z,0
2018-04-07T02:27:22.727Z,0
2018-04-07T02:28:23.456Z,0
2018-04-07T02:29:22.086Z,0
2018-04-07T02:30:23.356Z,0
2018-04-07T02:31:23.916Z,0
2018-04-07T02:32:23.438Z,0
2018-04-07T02:33:23.207Z,0
2018-04-07T02:34:22.642Z,0
2018-04-07T02:35:22.312Z,0
2018-04-07T02:36:55.536Z,0
2018-04-07T02:38:12.740Z,0
2018-04-07T02:38:50.917Z,0
2018-04-07T02:40:20.063Z,0
2018-04-07T02:41:18.326Z,0
2018-04-07T02:42:19.805Z,0
2018-04-07T02:43:24.053Z,0
2018-04-07T02:44:18.058Z,0
2018-04-07T02:45:17.905Z,0
2018-04-07T02:46:19.931Z,0
2018-04-07T02:47:21.189Z,0
2018-04-07T02:48:22.188Z,0
2018-04-07T02:49:20.825Z,0
2018-04-07T03:00:01.511Z,0
2018-04-07T03:01:02.012Z,0
2018-04-07T03:02:55.725Z,0
2018-04-07T03:05:54.325Z,0
2018-04-07T03:07:22.899Z,0
2018-04-07T03:21:55.805Z,0
2018-04-07T03:23:30.299Z,0
2018-04-07T03:24:30.954Z,0
2018-04-07T03:25:28.664Z,0
2018-04-07T03:29:24.438Z,0
2018-04-07T03:30:54.204Z,0
2018-04-07T03:33:53.801Z,0
2018-04-07T03:34:56.004Z,0
2018-04-07T03:36:22.284Z,0
2018-04-07T03:37:22.676Z,0
2018-04-07T03:51:54.202Z,0
2018-04-07T03:52:55.231Z,0
2018-04-07T03:55:32.567Z,0
2018-04-07T03:56:33.284Z,0
2018-04-07T03:57:54.287Z,0
2018-04-07T03:59:14.904Z,0
2018-04-07T04:00:15.559Z,0
2018-04-07T04:01:15.810Z,0
2018-04-07T04:02:36.180Z,0
2018-04-07T04:03:36.851Z,0
2018-04-07T04:04:37.356Z,0
2018-04-07T04:05:36.630Z,0
2018-04-07T04:06:37.433Z,0
2018-04-07T04:07:37.151Z,0
2018-04-07T04:08:36.903Z,0
2018-04-07T04:09:36.199Z,0
2018-04-07T04:10:37.099Z,0
2018-04-07T04:11:36.807Z,0
2018-04-07T04:12:37.194Z,0
2018-04-07T04:13:36.973Z,0
2018-04-07T04:14:36.228Z,0
2018-04-07T04:16:18.621Z,0
2018-04-07T04:17:19.075Z,0
2018-04-07T04:18:19.446Z,0
2018-04-07T04:19:19.097Z,0
2018-04-07T04:20:18.466Z,0
2018-04-07T04:21:19.022Z,0
2018-04-07T04:22:18.494Z,0
2018-04-07T04:23:18.790Z,0
2018-04-07T04:24:19.195Z,0
2018-04-07T04:25:19.033Z,0
2018-04-07T04:26:19.369Z,0
2018-04-07T04:27:18.722Z,0
2018-04-07T04:28:19.477Z,0
2018-04-07T04:29:19.186Z,0
2018-04-07T04:30:18.541Z,0
2018-04-07T04:31:18.750Z,0
2018-04-07T04:32:42.140Z,0
2018-04-07T04:33:43.034Z,0
2018-04-07T04:34:42.469Z,0
2018-04-07T04:35:43.208Z,1
2018-04-07T04:37:02.834Z,1
2018-04-07T04:38:03.533Z,1
2018-04-07T04:39:03.452Z,1
2018-04-07T04:40:03.238Z,1
2018-04-07T04:41:04.101Z,1
2018-04-07T04:42:03.967Z,1
2018-04-07T04:43:03.639Z,1
2018-04-07T04:44:03.087Z,1
2018-04-07T04:45:03.545Z,2
2018-04-07T04:46:03.155Z,2
2018-04-07T04:47:03.835Z,2
2018-04-07T04:48:03.516Z,2
2018-04-07T04:49:02.921Z,3
2018-04-07T04:50:03.427Z,3
2018-04-07T04:51:03.708Z,3
2018-04-07T04:52:03.329Z,4
2018-04-07T04:53:03.684Z,4
2018-04-07T04:54:03.349Z,5
2018-04-07T04:55:04.368Z,5
2018-04-07T04:56:28.139Z,6
2018-04-07T04:57:27.779Z,7
2018-04-07T04:58:27.624Z,7
2018-04-07T05:00:45.587Z,9
2018-04-07T05:01:46.011Z,9
2018-04-07T05:02:45.742Z,10
2018-04-07T05:03:46.425Z,11
2018-04-07T05:05:07.193Z,12
2018-04-07T05:06:08.034Z,13
2018-04-07T05:07:07.616Z,14
2018-04-07T05:08:08.413Z,14
2018-04-07T05:09:08.584Z,15
2018-04-07T05:52:33.216Z,70
2018-04-07T05:53:33.761Z,73
2018-04-07T05:54:33.457Z,72
2018-04-07T05:55:34.128Z,65
2018-04-07T05:56:33.677Z,65
2018-04-07T05:58:21.754Z,70
2018-04-07T05:59:50.883Z,81
2018-04-07T06:02:11.245Z,76
2018-04-07T06:03:53.540Z,70
2018-04-07T06:05:13.520Z,67
2018-04-07T06:06:57.426Z,71
2018-04-07T06:07:58.867Z,69
2018-04-07T06:10:06.757Z,69
2018-04-07T06:11:35.080Z,80
2018-04-07T06:12:38.325Z,72
2018-04-07T06:13:36.272Z,72
2018-04-07T06:15:34.330Z,75
2018-04-07T06:18:19.277Z,76
2018-04-07T06:19:20.147Z,73
2018-04-07T06:20:20.128Z,70
2018-04-07T06:21:20.971Z,69
2018-04-07T06:22:20.872Z,70
2018-04-07T06:23:40.845Z,75
2018-04-07T06:24:41.115Z,78
2018-04-07T06:25:41.915Z,78
2018-04-07T06:26:41.712Z,79
2018-04-07T06:27:41.680Z,83
2018-04-07T06:28:43.178Z,105
2018-04-07T06:29:45.188Z,131
2018-04-07T06:30:41.225Z,138
2018-04-07T06:31:43.310Z,133
2018-04-07T06:32:41.749Z,131
2018-04-07T06:33:41.871Z,134
2018-04-07T06:34:44.741Z,134
2018-04-07T06:35:41.290Z,126
2018-04-07T06:36:42.400Z,134
2018-04-07T06:37:41.987Z,135
2018-04-07T06:38:41.786Z,146
2018-04-07T06:39:40.730Z,171
2018-04-07T06:40:41.773Z,177
2018-04-07T06:41:41.276Z,179
2018-04-07T06:42:42.159Z,181
2018-04-07T06:43:41.103Z,181
2018-04-07T06:44:40.770Z,139
2018-04-07T06:45:41.809Z,168
2018-04-07T06:46:42.279Z,153
2018-04-07T06:47:41.973Z,159
2018-04-07T06:48:41.151Z,154
2018-04-07T06:50:03.182Z,166
2018-04-07T06:51:04.539Z,169
2018-04-07T06:52:03.255Z,165
2018-04-07T06:53:02.970Z,169
2018-04-07T06:54:02.884Z,179
2018-04-07T06:55:02.569Z,182
2018-04-07T06:56:03.536Z,180
2018-04-07T06:57:06.062Z,186
2018-04-07T06:58:04.440Z,182
2018-04-07T06:59:25.060Z,179
2018-04-07T07:00:26.114Z,180
2018-04-07T07:01:26.254Z,194
2018-04-07T07:02:26.407Z,188
2018-04-07T07:03:25.598Z,193
2018-04-07T07:04:26.242Z,197
2018-04-07T07:05:27.121Z,203
2018-04-07T07:06:28.360Z,220
2018-04-07T07:08:19.991Z,223
2018-04-07T07:09:17.920Z,215
2018-04-07T07:10:41.403Z,190
2018-04-07T07:11:42.052Z,206
2018-04-07T07:12:45.287Z,218
2018-04-07T07:13:43.459Z,218
2018-04-07T07:14:43.319Z,246
2018-04-07T07:15:41.249Z,245
2018-04-07T07:17:07.690Z,238
2018-04-07T07:18:05.309Z,241
2018-04-07T07:19:27.814Z,241
2018-04-07T07:20:28.918Z,239
2018-04-07T07:21:32.552Z,256
2018-04-07T07:22:38.516Z,256
2018-04-07T07:23:30.423Z,257
2018-04-07T07:24:29.899Z,262
2018-04-07T07:25:29.831Z,278
2018-04-07T07:26:28.207Z,271
2018-04-07T07:27:28.337Z,267
2018-04-07T07:28:28.641Z,271
2018-04-07T07:29:28.754Z,288
2018-04-07T07:30:26.650Z,297
2018-04-07T07:31:52.253Z,304
2018-04-07T07:32:54.074Z,310
2018-04-07T07:33:52.171Z,311
2018-04-07T07:34:52.930Z,304
2018-04-07T07:35:51.929Z,306
2018-04-07T07:37:21.080Z,308
2018-04-07T07:38:19.689Z,294
2018-04-07T07:39:18.991Z,289
2018-04-07T07:41:01.552Z,302
2018-04-07T07:42:03.629Z,327
2018-04-07T07:43:02.911Z,319
2018-04-07T07:44:01.628Z,312
2018-04-07T07:45:04.094Z,313
2018-04-07T07:46:03.664Z,312
2018-04-07T07:47:23.763Z,326
2018-04-07T07:48:24.362Z,330
2018-04-07T07:49:25.298Z,328
2018-04-07T07:50:26.069Z,301
2018-04-07T07:51:24.247Z,325
2018-04-07T07:52:24.419Z,321
2018-04-07T07:53:24.926Z,256
2018-04-07T07:54:24.372Z,268
2018-04-07T07:56:21.480Z,316
2018-04-07T07:57:19.513Z,317
2018-04-07T07:58:45.690Z,324
2018-04-07T08:00:03.095Z,323
2018-04-07T08:01:02.969Z,339
2018-04-07T08:02:03.035Z,342
2018-04-07T08:03:05.038Z,336
2018-04-07T08:04:03.093Z,328
2018-04-07T08:05:07.052Z,346
2018-04-07T08:07:12.046Z,361
2018-04-07T08:08:10.602Z,352
2018-04-07T08:09:08.679Z,352
2018-04-07T08:11:32.143Z,361
2018-04-07T08:12:31.980Z,374
2018-04-07T08:13:59.737Z,374
2018-04-07T08:16:45.715Z,380
2018-04-07T08:18:07.144Z,312
2018-04-07T08:19:08.201Z,329
2018-04-07T08:20:31.514Z,357
2018-04-07T08:21:31.274Z,360
2018-04-07T08:22:31.632Z,370
2018-04-07T08:23:31.767Z,365
2018-04-07T08:25:16.378Z,355
2018-04-07T08:26:47.033Z,325
2018-04-07T08:27:42.293Z,272
2018-04-07T08:28:46.176Z,295
2018-04-07T08:29:42.815Z,373
2018-04-07T08:30:42.838Z,380
2018-04-07T08:31:41.776Z,373
2018-04-07T08:32:42.839Z,371
2018-04-07T08:33:41.635Z,382
2018-04-07T08:34:42.959Z,408
2018-04-07T08:36:13.056Z,395
2018-04-07T08:37:14.747Z,396
2018-04-07T08:38:13.566Z,401
2018-04-07T08:40:11.686Z,401
2018-04-07T08:41:11.570Z,407
2018-04-07T08:42:13.154Z,400
2018-04-07T08:43:14.381Z,390
2018-04-07T08:44:48.761Z,391
2018-04-07T08:46:13.126Z,386
2018-04-07T08:47:13.543Z,383
2018-04-07T08:48:13.298Z,354
2018-04-07T08:49:13.548Z,379
2018-04-07T08:50:14.079Z,416
2018-04-07T08:51:36.091Z,430
2018-04-07T08:52:57.040Z,435
2018-04-07T08:53:58.454Z,460
2018-04-07T08:54:57.892Z,468
2018-04-07T08:55:57.900Z,486
2018-04-07T08:56:57.704Z,500
2018-04-07T08:57:57.616Z,456
2018-04-07T08:59:39.171Z,436
2018-04-07T09:00:40.055Z,470
2018-04-07T09:01:39.540Z,475
2018-04-07T09:02:39.566Z,491
2018-04-07T09:03:39.758Z,487
2018-04-07T09:04:39.874Z,488
2018-04-07T09:05:40.556Z,487
2018-04-07T09:06:39.206Z,501
2018-04-07T09:07:40.026Z,509
2018-04-07T09:08:39.682Z,522
2018-04-07T09:10:01.548Z,512
2018-04-07T09:11:01.622Z,508
2018-04-07T09:12:23.752Z,537
2018-04-07T09:13:24.412Z,516
2018-04-07T09:14:23.887Z,497
2018-04-07T09:15:44.488Z,484
2018-04-07T09:16:45.490Z,506
2018-04-07T09:18:06.792Z,483
2018-04-07T09:19:07.532Z,520
2018-04-07T09:20:07.463Z,540
2018-04-07T09:21:07.515Z,543
2018-04-07T09:22:07.468Z,536
2018-04-07T09:23:07.353Z,510
2018-04-07T09:24:07.390Z,528
2018-04-07T09:25:07.449Z,571
2018-04-07T09:26:06.900Z,548
2018-04-07T09:27:06.860Z,574
2018-04-07T09:28:06.954Z,581
2018-04-07T09:29:06.609Z,569
2018-04-07T09:30:30.839Z,563
2018-04-07T09:31:30.464Z,546
2018-04-07T09:32:31.241Z,545
2018-04-07T09:33:31.242Z,550
2018-04-07T09:34:31.076Z,549
2018-04-07T09:36:12.232Z,527
2018-04-07T09:37:13.270Z,528
2018-04-07T09:38:13.090Z,545
2018-04-07T09:39:34.626Z,552
2018-04-07T09:40:36.183Z,543
2018-04-07T09:41:34.980Z,527
2018-04-07T09:42:34.669Z,533
2018-04-07T09:43:35.573Z,550
2018-04-07T09:44:35.218Z,563
2018-04-07T09:45:56.800Z,539
2018-04-07T09:46:57.333Z,516
2018-04-07T09:47:56.927Z,564
2018-04-07T09:48:56.643Z,560
2018-04-07T09:49:57.314Z,534
2018-04-07T09:50:56.953Z,528
2018-04-07T09:51:56.898Z,485
2018-04-07T09:52:56.901Z,485
2018-04-07T09:53:56.819Z,532
2018-04-07T09:54:56.567Z,517
2018-04-07T09:55:57.273Z,530
2018-04-07T09:56:56.988Z,532
2018-04-07T09:57:57.067Z,522
2018-04-07T09:59:18.145Z,504
2018-04-07T10:00:17.841Z,499
2018-04-07T10:01:40.142Z,509
2018-04-07T10:02:40.205Z,483
2018-04-07T10:03:40.705Z,466
2018-04-07T10:04:40.289Z,492
2018-04-07T10:05:40.450Z,527
2018-04-07T10:06:40.503Z,545
2018-04-07T10:07:40.507Z,526
2018-04-07T10:08:40.078Z,523
2018-04-07T10:09:40.745Z,531
2018-04-07T10:10:40.443Z,533
2018-04-07T10:11:40.312Z,533
2018-04-07T10:12:40.294Z,553
2018-04-07T10:13:39.919Z,556
2018-04-07T10:14:40.672Z,534
2018-04-07T10:16:02.738Z,520
2018-04-07T10:17:02.648Z,514
2018-04-07T10:18:02.667Z,490
2018-04-07T10:19:02.582Z,481
2018-04-07T10:20:02.423Z,489
2018-04-07T10:21:02.123Z,484
2018-04-07T10:22:03.107Z,492
2018-04-07T10:23:02.177Z,492
2018-04-07T10:24:23.867Z,507
2018-04-07T10:25:24.556Z,505
2018-04-07T10:26:24.779Z,502
2018-04-07T10:27:24.590Z,498
2018-04-07T10:28:24.505Z,501
2018-04-07T10:29:24.159Z,515
2018-04-07T10:30:24.509Z,521
2018-04-07T10:31:24.526Z,538
2018-04-07T10:32:24.632Z,558
2018-04-07T10:33:24.428Z,561
2018-04-07T10:34:24.387Z,544
2018-04-07T10:35:24.366Z,535
2018-04-07T10:36:23.875Z,530
2018-04-07T10:37:48.018Z,525
2018-04-07T10:38:48.787Z,536
2018-04-07T10:39:49.482Z,536
2018-04-07T10:40:48.451Z,544
2018-04-07T10:41:48.026Z,541
2018-04-07T10:43:10.088Z,546
2018-04-07T10:44:31.130Z,508
2018-04-07T10:45:31.880Z,477
2018-04-07T10:46:31.872Z,454
2018-04-07T10:47:31.797Z,475
2018-04-07T10:48:31.548Z,523
2018-04-07T10:49:31.440Z,521
2018-04-07T10:50:31.062Z,514
2018-04-07T10:51:31.628Z,537
2018-04-07T10:52:31.234Z,567
2018-04-07T10:53:31.241Z,561
2018-04-07T10:54:31.407Z,534
2018-04-07T10:55:31.496Z,550
2018-04-07T10:56:32.208Z,530
2018-04-07T10:57:31.480Z,587
2018-04-07T10:58:31.675Z,583
2018-04-07T10:59:31.509Z,566
2018-04-07T11:00:31.703Z,566
2018-04-07T11:01:31.538Z,581
2018-04-07T11:02:31.550Z,576
2018-04-07T11:03:52.857Z,562
2018-04-07T11:04:53.980Z,555
2018-04-07T11:05:54.077Z,571
2018-04-07T11:06:54.032Z,587
2018-04-07T11:07:53.805Z,598
2018-04-07T11:08:53.591Z,586
2018-04-07T11:09:53.571Z,580
2018-04-07T11:10:53.816Z,572
2018-04-07T11:11:53.656Z,547
2018-04-07T11:12:53.748Z,524
2018-04-07T11:13:53.497Z,528
2018-04-07T11:14:53.575Z,521
2018-04-07T11:15:53.441Z,534
2018-04-07T11:16:53.624Z,542
2018-04-07T11:18:14.644Z,569
2018-04-07T11:19:16.948Z,568
2018-04-07T11:20:15.757Z,531
2018-04-07T11:21:18.556Z,531
2018-04-07T11:22:15.891Z,544
2018-04-07T11:23:15.513Z,510
2018-04-07T11:24:15.615Z,541
2018-04-07T11:25:15.369Z,551
2018-04-07T11:26:15.288Z,551
2018-04-07T11:27:14.923Z,534
2018-04-07T11:28:15.876Z,534
2018-04-07T11:29:36.380Z,533
2018-04-07T11:30:37.431Z,542
2018-04-07T11:31:37.138Z,556
2018-04-07T11:32:37.215Z,541
2018-04-07T11:33:36.966Z,558
2018-04-07T11:34:36.849Z,579
2018-04-07T11:35:36.930Z,589
2018-04-07T11:36:58.149Z,596
2018-04-07T11:37:57.879Z,603
2018-04-07T11:38:58.871Z,591
2018-04-07T11:40:40.256Z,572
2018-04-07T11:42:03.281Z,533
2018-04-07T11:43:04.015Z,535
2018-04-07T11:44:03.608Z,529
2018-04-07T11:45:04.515Z,555
2018-04-07T11:46:04.164Z,570
2018-04-07T11:47:04.372Z,557
2018-04-07T11:48:04.674Z,543
2018-04-07T11:49:04.313Z,560
2018-04-07T11:50:04.186Z,560
2018-04-07T11:51:03.874Z,546
2018-04-07T11:52:03.879Z,546
2018-04-07T11:53:03.530Z,549
2018-04-07T11:54:04.236Z,579
2018-04-07T11:55:04.308Z,585
2018-04-07T11:56:04.076Z,591
2018-04-07T11:57:04.027Z,573
2018-04-07T11:58:04.083Z,564
2018-04-07T11:59:03.853Z,578
2018-04-07T12:00:03.839Z,578
2018-04-07T12:01:25.031Z,575
2018-04-07T12:02:24.594Z,612
2018-04-07T12:03:25.454Z,585
2018-04-07T12:04:25.552Z,533
2018-04-07T12:05:25.629Z,485
2018-04-07T12:06:25.573Z,454
2018-04-07T12:07:46.553Z,400
2018-04-07T12:08:47.614Z,411
2018-04-07T12:09:47.222Z,399
2018-04-07T12:11:07.620Z,530
2018-04-07T12:12:08.321Z,568
2018-04-07T12:13:07.913Z,614
2018-04-07T12:14:08.665Z,641
2018-04-07T12:15:08.232Z,652
2018-04-07T12:16:08.225Z,652
2018-04-07T12:17:08.469Z,646
2018-04-07T12:18:08.107Z,649
2018-04-07T12:19:08.772Z,613
2018-04-07T12:20:08.553Z,555
2018-04-07T12:21:08.416Z,544
2018-04-07T12:22:08.222Z,470
2018-04-07T12:23:09.928Z,469
2018-04-07T12:24:08.195Z,572
2018-04-07T12:25:08.476Z,563
2018-04-07T12:26:30.113Z,612
2018-04-07T12:27:30.339Z,626
2018-04-07T12:28:30.282Z,601
2018-04-07T12:29:30.158Z,609
2018-04-07T12:30:30.320Z,565
2018-04-07T12:31:30.391Z,563
2018-04-07T12:32:50.852Z,524
2018-04-07T12:34:11.706Z,516
2018-04-07T12:35:11.791Z,519
2018-04-07T12:36:33.572Z,560
2018-04-07T12:37:34.649Z,569
2018-04-07T12:38:34.630Z,554
2018-04-07T12:39:34.469Z,561
2018-04-07T12:40:34.624Z,582
2018-04-07T12:41:34.473Z,559
2018-04-07T12:42:34.186Z,564
2018-04-07T12:43:34.292Z,555
2018-04-07T12:44:55.984Z,548
2018-04-07T12:45:56.576Z,538
2018-04-07T12:46:56.392Z,540
2018-04-07T12:48:17.547Z,544
2018-04-07T12:49:18.339Z,549
2018-04-07T12:50:18.179Z,544
2018-04-07T12:51:17.760Z,546
2018-04-07T12:52:18.038Z,555
2018-04-07T12:53:18.530Z,537
2018-04-07T12:54:18.195Z,512
2018-04-07T12:55:18.164Z,501
2018-04-07T12:56:17.988Z,517
2018-04-07T12:57:38.531Z,529
2018-04-07T12:58:39.245Z,523
2018-04-07T12:59:39.192Z,541
2018-04-07T13:00:39.251Z,547
2018-04-07T13:01:39.207Z,537
2018-04-07T13:02:39.348Z,548
2018-04-07T13:03:39.129Z,549
2018-04-07T13:04:39.291Z,541
2018-04-07T13:05:39.450Z,546
2018-04-07T13:06:39.224Z,526
2018-04-07T13:07:39.446Z,494
2018-04-07T13:08:39.193Z,479
2018-04-07T13:10:00.515Z,503
2018-04-07T13:11:01.266Z,521
2018-04-07T13:12:01.271Z,465
2018-04-07T13:14:03.407Z,302
2018-04-07T13:15:25.457Z,288
2018-04-07T13:16:26.641Z,445
2018-04-07T13:17:25.428Z,473
2018-04-07T13:18:26.444Z,481
2018-04-07T13:19:26.284Z,486
2018-04-07T13:20:48.004Z,490
2018-04-07T13:21:48.006Z,480
2018-04-07T13:23:10.077Z,496
2018-04-07T13:24:10.738Z,520
2018-04-07T13:25:10.418Z,532
2018-04-07T13:26:31.990Z,518
2018-04-07T13:27:32.827Z,517
2018-04-07T13:28:32.941Z,519
2018-04-07T13:29:53.484Z,541
2018-04-07T13:30:54.725Z,508
2018-04-07T13:31:54.361Z,492
2018-04-07T13:32:54.470Z,489
2018-04-07T13:34:15.581Z,498
2018-04-07T13:35:17.021Z,459
2018-04-07T13:36:15.978Z,466
2018-04-07T13:37:37.757Z,477
2018-04-07T13:38:38.703Z,488
2018-04-07T13:39:38.479Z,464
2018-04-07T13:40:59.862Z,420
2018-04-07T13:42:00.498Z,427
2018-04-07T13:43:00.466Z,468
2018-04-07T13:44:00.349Z,503
2018-04-07T13:45:00.112Z,541
2018-04-07T13:46:23.111Z,486
2018-04-07T13:47:22.747Z,471
2018-04-07T13:48:44.564Z,471
2018-04-07T13:50:07.017Z,492
2018-04-07T13:51:06.853Z,496
2018-04-07T13:52:08.002Z,490
2018-04-07T13:53:06.761Z,503
2018-04-07T13:54:07.776Z,485
2018-04-07T13:55:07.587Z,455
2018-04-07T13:56:29.253Z,435
2018-04-07T13:57:29.296Z,438
2018-04-07T13:58:28.996Z,446
2018-04-07T13:59:29.558Z,429
2018-04-07T14:00:29.224Z,380
2018-04-07T14:01:29.340Z,369
2018-04-07T14:02:29.652Z,407
2018-04-07T14:03:29.746Z,422
2018-04-07T14:04:29.552Z,407
2018-04-07T14:05:29.294Z,409
2018-04-07T14:06:31.175Z,416
2018-04-07T14:07:30.159Z,367
2018-04-07T14:08:53.169Z,395
2018-04-07T14:09:55.796Z,410
2018-04-07T14:10:52.997Z,419
2018-04-07T14:11:53.463Z,417
2018-04-07T14:12:53.103Z,396
2018-04-07T14:13:52.124Z,408
2018-04-07T14:14:52.350Z,419
2018-04-07T14:15:52.581Z,428
2018-04-07T14:16:53.148Z,424
2018-04-07T14:17:53.055Z,429
2018-04-07T14:18:52.671Z,438
2018-04-07T14:19:52.826Z,417
2018-04-07T14:20:53.595Z,400
2018-04-07T14:22:17.409Z,374
2018-04-07T14:23:19.930Z,375
2018-04-07T14:24:16.793Z,382
2018-04-07T14:25:16.916Z,368
2018-04-07T14:26:16.999Z,381
2018-04-07T14:27:16.873Z,366
2018-04-07T14:28:16.706Z,367
2018-04-07T14:29:16.577Z,369
2018-04-07T14:30:16.602Z,353
2018-04-07T14:31:16.550Z,360
2018-04-07T14:32:38.349Z,361
2018-04-07T14:33:59.749Z,355
2018-04-07T14:35:00.202Z,370
2018-04-07T14:36:00.017Z,367
2018-04-07T14:37:01.064Z,368
2018-04-07T14:37:59.793Z,380
2018-04-07T14:39:22.138Z,360
2018-04-07T14:40:22.002Z,378
2018-04-07T14:41:23.117Z,389
2018-04-07T14:42:21.961Z,380
2018-04-07T14:43:44.869Z,370
2018-04-07T14:44:44.738Z,370
2018-04-07T14:45:45.615Z,359
2018-04-07T14:47:07.053Z,360
2018-04-07T14:48:06.984Z,362
2018-04-07T14:49:08.124Z,349
2018-04-07T14:50:08.111Z,354
2018-04-07T14:51:48.429Z,355
2018-04-07T14:52:49.499Z,357
2018-04-07T14:53:49.526Z,345
2018-04-07T14:54:49.517Z,345
2018-04-07T14:55:49.249Z,334
2018-04-07T14:56:49.199Z,333
2018-04-07T14:57:49.117Z,341
2018-04-07T14:58:48.897Z,333
2018-04-07T14:59:48.569Z,328
2018-04-07T15:00:54.708Z,320
2018-04-07T15:01:51.644Z,320
2018-04-07T15:03:08.947Z,315
2018-04-07T15:04:08.977Z,314
2018-04-07T15:05:09.007Z,321
2018-04-07T15:06:09.232Z,320
2018-04-07T15:07:08.182Z,310
2018-04-07T15:08:29.074Z,287
2018-04-07T15:09:28.931Z,290
2018-04-07T15:10:29.679Z,302
2018-04-07T15:11:29.713Z,304
2018-04-07T15:12:29.725Z,293
2018-04-07T15:13:29.521Z,293
2018-04-07T15:14:29.512Z,293
2018-04-07T15:15:29.352Z,298
2018-04-07T15:16:54.251Z,285
2018-04-07T15:18:36.136Z,279
2018-04-07T15:19:35.893Z,277
2018-04-07T15:20:36.708Z,270
2018-04-07T15:21:37.100Z,267
2018-04-07T15:22:36.895Z,267
2018-04-07T15:23:36.740Z,269
2018-04-07T15:24:36.451Z,266
2018-04-07T15:25:36.298Z,265
2018-04-07T15:26:36.340Z,262
2018-04-07T15:27:36.380Z,252
2018-04-07T15:28:36.196Z,246
2018-04-07T15:29:35.885Z,234
2018-04-07T15:30:36.721Z,226
2018-04-07T15:31:36.683Z,220
2018-04-07T15:32:37.572Z,208
2018-04-07T15:33:36.380Z,210
2018-04-07T15:34:35.934Z,214
2018-04-07T15:35:36.101Z,217
2018-04-07T15:36:36.116Z,210
2018-04-07T15:37:36.996Z,206
2018-04-07T15:38:37.580Z,205
2018-04-07T15:39:36.850Z,206
2018-04-07T15:40:36.629Z,209
2018-04-07T15:41:37.109Z,209
2018-04-07T15:42:35.919Z,202
2018-04-07T15:43:37.299Z,187
2018-04-07T15:44:36.008Z,183
2018-04-07T15:45:36.754Z,191
2018-04-07T15:46:36.830Z,187
2018-04-07T15:47:36.708Z,184
2018-04-07T15:48:37.044Z,188
2018-04-07T15:49:36.637Z,184
2018-04-07T15:50:36.443Z,176
2018-04-07T15:51:36.549Z,180
2018-04-07T15:52:36.147Z,185
2018-04-07T15:53:36.116Z,185
2018-04-07T15:54:37.950Z,189
2018-04-07T15:55:35.800Z,185
2018-04-07T15:56:37.109Z,178
2018-04-07T15:57:35.698Z,173
2018-04-07T15:58:36.325Z,168
2018-04-07T15:59:36.459Z,166
2018-04-07T16:00:36.239Z,161
2018-04-07T16:01:36.355Z,157
2018-04-07T16:02:58.069Z,158
2018-04-07T16:03:58.740Z,162
2018-04-07T16:04:58.462Z,165
2018-04-07T16:05:58.656Z,162
2018-04-07T16:06:58.927Z,162
2018-04-07T16:07:58.731Z,166
2018-04-07T16:08:58.700Z,162
2018-04-07T16:10:22.014Z,156
2018-04-07T16:11:22.900Z,153
2018-04-07T16:12:22.558Z,151
2018-04-07T16:13:44.306Z,148
2018-04-07T16:15:04.553Z,143
2018-04-07T16:16:05.243Z,139
2018-04-07T16:17:04.886Z,135
2018-04-07T16:18:04.724Z,133
2018-04-07T16:19:04.484Z,125
2018-04-07T16:20:06.466Z,115
2018-04-07T16:21:05.147Z,103
2018-04-07T16:22:25.583Z,82
2018-04-07T16:23:47.416Z,72
2018-04-07T16:24:47.316Z,69
2018-04-07T16:25:46.965Z,67
2018-04-07T16:26:48.206Z,66
2018-04-07T16:28:09.717Z,65
2018-04-07T16:29:09.884Z,63
2018-04-07T16:30:08.596Z,62
2018-04-07T16:31:31.090Z,55
2018-04-07T16:32:32.008Z,52
2018-04-07T16:33:31.169Z,50
2018-04-07T16:34:30.856Z,49
2018-04-07T16:35:32.021Z,48
2018-04-07T16:36:54.029Z,48
2018-04-07T16:37:54.290Z,47
2018-04-07T16:38:54.380Z,46
2018-04-07T16:39:54.147Z,45